sensor_id;sensor_type;location;lat;lon;timestamp;temperature;humidity
22562;DHT22;11447;50.562;8.504;2022-12-29T00:01:36;10.20;77.40
22562;DHT22;11447;50.562;8.504;2022-12-29T00:04:03;10.10;77.40
22562;DHT22;11447;50.562;8.504;2022-12-29T00:06:36;10.20;77.40
22562;DHT22;11447;50.562;8.504;2022-12-29T00:09:03;10.30;77.40
22562;DHT22;11447;50.562;8.504;2022-12-29T00:11:30;10.20;77.40
22562;DHT22;11447;50.562;8.504;2022-12-29T00:13:56;10.20;77.40
22562;DHT22;11447;50.562;8.504;2022-12-29T00:16:48;10.30;77.40
22562;DHT22;11447;50.562;8.504;2022-12-29T00:19:14;10.30;77.40
22562;DHT22;11447;50.562;8.504;2022-12-29T00:22:02;10.60;77.40
22562;DHT22;11447;50.562;8.504;2022-12-29T00:24:47;10.60;77.40
22562;DHT22;11447;50.562;8.504;2022-12-29T00:27:29;10.60;77.40
22562;DHT22;11447;50.562;8.504;2022-12-29T00:30:16;10.70;77.40
22562;DHT22;11447;50.562;8.504;2022-12-29T00:33:17;10.70;77.40
22562;DHT22;11447;50.562;8.504;2022-12-29T00:38:36;10.90;77.40
22562;DHT22;11447;50.562;8.504;2022-12-29T00:41:22;11.10;77.40
22562;DHT22;11447;50.562;8.504;2022-12-29T00:44:08;11.20;77.40
22562;DHT22;11447;50.562;8.504;2022-12-29T00:46:37;11.00;77.40
22562;DHT22;11447;50.562;8.504;2022-12-29T00:49:04;11.10;77.40
22562;DHT22;11447;50.562;8.504;2022-12-29T00:51:50;11.00;77.40
22562;DHT22;11447;50.562;8.504;2022-12-29T00:54:19;11.20;77.40
22562;DHT22;11447;50.562;8.504;2022-12-29T00:56:49;11.10;77.40
22562;DHT22;11447;50.562;8.504;2022-12-29T00:59:20;11.10;77.40
22562;DHT22;11447;50.562;8.504;2022-12-29T01:01:51;11.10;77.40
22562;DHT22;11447;50.562;8.504;2022-12-29T01:04:19;11.20;77.40
22562;DHT22;11447;50.562;8.504;2022-12-29T01:06:46;11.20;77.40
22562;DHT22;11447;50.562;8.504;2022-12-29T01:09:15;11.10;77.40
22562;DHT22;11447;50.562;8.504;2022-12-29T01:12:03;11.20;77.40
22562;DHT22;11447;50.562;8.504;2022-12-29T01:14:32;11.20;77.40
22562;DHT22;11447;50.562;8.504;2022-12-29T01:17:01;11.10;77.40
22562;DHT22;11447;50.562;8.504;2022-12-29T01:19:28;11.10;77.40
22562;DHT22;11447;50.562;8.504;2022-12-29T01:21:55;11.10;77.40
22562;DHT22;11447;50.562;8.504;2022-12-29T01:24:21;11.10;77.40
22562;DHT22;11447;50.562;8.504;2022-12-29T01:26:48;11.10;77.40
22562;DHT22;11447;50.562;8.504;2022-12-29T01:29:15;11.10;77.40
22562;DHT22;11447;50.562;8.504;2022-12-29T01:31:42;11.10;77.40
22562;DHT22;11447;50.562;8.504;2022-12-29T01:34:09;11.10;77.40
22562;DHT22;11447;50.562;8.504;2022-12-29T01:36:38;11.00;77.40
22562;DHT22;11447;50.562;8.504;2022-12-29T01:39:04;11.00;77.40
22562;DHT22;11447;50.562;8.504;2022-12-29T01:41:31;10.90;77.40
22562;DHT22;11447;50.562;8.504;2022-12-29T01:43:58;11.00;77.40
22562;DHT22;11447;50.562;8.504;2022-12-29T01:46:31;11.00;77.40
22562;DHT22;11447;50.562;8.504;2022-12-29T01:49:19;10.90;77.40
22562;DHT22;11447;50.562;8.504;2022-12-29T01:51:48;10.90;77.40
22562;DHT22;11447;50.562;8.504;2022-12-29T01:54:20;10.90;77.40
22562;DHT22;11447;50.562;8.504;2022-12-29T01:56:49;10.90;77.40
22562;DHT22;11447;50.562;8.504;2022-12-29T01:59:17;10.90;77.40
22562;DHT22;11447;50.562;8.504;2022-12-29T02:01:47;10.90;77.40
22562;DHT22;11447;50.562;8.504;2022-12-29T02:04:14;10.90;77.40
22562;DHT22;11447;50.562;8.504;2022-12-29T02:06:45;10.80;77.40
22562;DHT22;11447;50.562;8.504;2022-12-29T02:09:15;10.80;77.40
22562;DHT22;11447;50.562;8.504;2022-12-29T02:11:43;10.80;77.40
22562;DHT22;11447;50.562;8.504;2022-12-29T02:14:10;10.90;77.40
22562;DHT22;11447;50.562;8.504;2022-12-29T02:16:44;10.90;77.40
22562;DHT22;11447;50.562;8.504;2022-12-29T02:32:44;10.80;77.40
22562;DHT22;11447;50.562;8.504;2022-12-29T02:34:57;10.80;77.40
22562;DHT22;11447;50.562;8.504;2022-12-29T02:43:02;10.90;77.40
22562;DHT22;11447;50.562;8.504;2022-12-29T02:45:32;10.90;77.40
22562;DHT22;11447;50.562;8.504;2022-12-29T02:48:04;10.90;77.40
22562;DHT22;11447;50.562;8.504;2022-12-29T02:50:34;10.70;77.40
22562;DHT22;11447;50.562;8.504;2022-12-29T02:53:07;10.90;77.40
22562;DHT22;11447;50.562;8.504;2022-12-29T02:55:35;11.00;77.40
22562;DHT22;11447;50.562;8.504;2022-12-29T03:00:36;10.80;77.40
22562;DHT22;11447;50.562;8.504;2022-12-29T03:06:12;10.90;77.40
22562;DHT22;11447;50.562;8.504;2022-12-29T03:11:16;10.80;77.40
22562;DHT22;11447;50.562;8.504;2022-12-29T03:14:02;10.70;77.40
22562;DHT22;11447;50.562;8.504;2022-12-29T03:16:50;10.70;77.40
22562;DHT22;11447;50.562;8.504;2022-12-29T03:19:23;10.80;77.40
22562;DHT22;11447;50.562;8.504;2022-12-29T03:21:53;10.70;77.40
22562;DHT22;11447;50.562;8.504;2022-12-29T03:24:40;10.70;77.40
22562;DHT22;11447;50.562;8.504;2022-12-29T03:27:09;10.70;77.40
22562;DHT22;11447;50.562;8.504;2022-12-29T03:29:40;10.70;77.40
22562;DHT22;11447;50.562;8.504;2022-12-29T03:32:08;10.60;77.40
22562;DHT22;11447;50.562;8.504;2022-12-29T03:34:35;10.70;77.40
22562;DHT22;11447;50.562;8.504;2022-12-29T03:37:08;10.60;77.40
22562;DHT22;11447;50.562;8.504;2022-12-29T03:39:36;10.50;77.40
22562;DHT22;11447;50.562;8.504;2022-12-29T03:42:04;10.60;77.40
22562;DHT22;11447;50.562;8.504;2022-12-29T03:44:35;10.60;77.40
22562;DHT22;11447;50.562;8.504;2022-12-29T03:47:03;10.40;77.40
22562;DHT22;11447;50.562;8.504;2022-12-29T03:49:29;10.50;77.40
22562;DHT22;11447;50.562;8.504;2022-12-29T03:51:59;10.40;77.40
22562;DHT22;11447;50.562;8.504;2022-12-29T03:54:26;10.50;77.40
22562;DHT22;11447;50.562;8.504;2022-12-29T03:56:54;10.50;77.40
22562;DHT22;11447;50.562;8.504;2022-12-29T03:59:23;10.50;77.40
22562;DHT22;11447;50.562;8.504;2022-12-29T04:01:50;10.70;77.40
22562;DHT22;11447;50.562;8.504;2022-12-29T04:04:17;10.70;77.40
22562;DHT22;11447;50.562;8.504;2022-12-29T04:06:43;10.60;77.40
22562;DHT22;11447;50.562;8.504;2022-12-29T04:09:10;10.50;77.40
22562;DHT22;11447;50.562;8.504;2022-12-29T04:11:37;10.60;77.40
22562;DHT22;11447;50.562;8.504;2022-12-29T04:14:03;10.60;77.40
22562;DHT22;11447;50.562;8.504;2022-12-29T04:16:30;10.70;77.40
22562;DHT22;11447;50.562;8.504;2022-12-29T04:18:57;10.90;77.40
22562;DHT22;11447;50.562;8.504;2022-12-29T04:21:23;10.90;77.40
22562;DHT22;11447;50.562;8.504;2022-12-29T04:23:50;10.80;77.40
22562;DHT22;11447;50.562;8.504;2022-12-29T04:26:16;10.80;77.40
22562;DHT22;11447;50.562;8.504;2022-12-29T04:28:43;10.70;77.40
22562;DHT22;11447;50.562;8.504;2022-12-29T04:31:14;10.80;77.40
22562;DHT22;11447;50.562;8.504;2022-12-29T04:33:41;10.80;77.40
22562;DHT22;11447;50.562;8.504;2022-12-29T04:36:08;10.90;77.40
22562;DHT22;11447;50.562;8.504;2022-12-29T04:38:34;10.90;77.40
22562;DHT22;11447;50.562;8.504;2022-12-29T04:41:01;10.80;77.40
22562;DHT22;11447;50.562;8.504;2022-12-29T04:43:31;10.80;77.40
22562;DHT22;11447;50.562;8.504;2022-12-29T04:45:57;10.80;77.40
22562;DHT22;11447;50.562;8.504;2022-12-29T04:48:24;10.80;77.40
22562;DHT22;11447;50.562;8.504;2022-12-29T04:50:50;10.80;77.40
22562;DHT22;11447;50.562;8.504;2022-12-29T04:53:17;10.80;77.40
22562;DHT22;11447;50.562;8.504;2022-12-29T04:55:47;10.80;77.40
22562;DHT22;11447;50.562;8.504;2022-12-29T04:58:14;10.70;77.40
22562;DHT22;11447;50.562;8.504;2022-12-29T05:00:48;10.70;77.40
22562;DHT22;11447;50.562;8.504;2022-12-29T05:03:14;10.80;77.40
22562;DHT22;11447;50.562;8.504;2022-12-29T05:05:43;10.90;77.40
22562;DHT22;11447;50.562;8.504;2022-12-29T05:08:10;10.80;77.40
22562;DHT22;11447;50.562;8.504;2022-12-29T05:10:36;10.70;77.40
22562;DHT22;11447;50.562;8.504;2022-12-29T05:13:03;10.70;77.40
22562;DHT22;11447;50.562;8.504;2022-12-29T05:15:30;10.80;77.40
22562;DHT22;11447;50.562;8.504;2022-12-29T05:18:00;10.60;77.40
22562;DHT22;11447;50.562;8.504;2022-12-29T05:20:26;10.70;77.40
22562;DHT22;11447;50.562;8.504;2022-12-29T05:22:53;10.50;77.40
22562;DHT22;11447;50.562;8.504;2022-12-29T05:25:22;10.50;77.40
22562;DHT22;11447;50.562;8.504;2022-12-29T05:27:48;10.50;77.40
22562;DHT22;11447;50.562;8.504;2022-12-29T05:30:15;10.50;77.40
22562;DHT22;11447;50.562;8.504;2022-12-29T05:32:45;10.70;77.40
22562;DHT22;11447;50.562;8.504;2022-12-29T05:35:11;10.60;77.40
22562;DHT22;11447;50.562;8.504;2022-12-29T05:37:38;10.50;77.40
22562;DHT22;11447;50.562;8.504;2022-12-29T05:40:05;10.50;77.40
22562;DHT22;11447;50.562;8.504;2022-12-29T05:42:31;10.70;77.40
22562;DHT22;11447;50.562;8.504;2022-12-29T05:45:01;10.70;77.40
22562;DHT22;11447;50.562;8.504;2022-12-29T05:47:33;10.60;77.40
22562;DHT22;11447;50.562;8.504;2022-12-29T05:50:02;10.60;77.40
22562;DHT22;11447;50.562;8.504;2022-12-29T05:52:28;10.80;77.40
22562;DHT22;11447;50.562;8.504;2022-12-29T05:54:55;10.80;77.40
22562;DHT22;11447;50.562;8.504;2022-12-29T05:57:22;10.70;77.40
22562;DHT22;11447;50.562;8.504;2022-12-29T05:59:48;10.50;77.40
22562;DHT22;11447;50.562;8.504;2022-12-29T06:02:15;10.60;77.40
22562;DHT22;11447;50.562;8.504;2022-12-29T06:04:42;10.70;77.40
22562;DHT22;11447;50.562;8.504;2022-12-29T06:07:09;10.60;77.40
22562;DHT22;11447;50.562;8.504;2022-12-29T06:09:35;10.70;77.40
22562;DHT22;11447;50.562;8.504;2022-12-29T06:12:04;10.70;77.40
22562;DHT22;11447;50.562;8.504;2022-12-29T06:14:31;10.70;77.40
22562;DHT22;11447;50.562;8.504;2022-12-29T06:16:58;10.60;77.40
22562;DHT22;11447;50.562;8.504;2022-12-29T06:19:27;10.80;77.40
22562;DHT22;11447;50.562;8.504;2022-12-29T06:21:53;10.60;77.40
22562;DHT22;11447;50.562;8.504;2022-12-29T06:24:21;10.70;77.40
22562;DHT22;11447;50.562;8.504;2022-12-29T06:26:50;10.90;77.40
22562;DHT22;11447;50.562;8.504;2022-12-29T06:29:16;10.70;77.40
22562;DHT22;11447;50.562;8.504;2022-12-29T06:31:44;10.90;77.40
22562;DHT22;11447;50.562;8.504;2022-12-29T06:34:17;10.90;77.40
22562;DHT22;11447;50.562;8.504;2022-12-29T06:36:44;10.80;77.40
22562;DHT22;11447;50.562;8.504;2022-12-29T06:39:10;10.80;77.40
22562;DHT22;11447;50.562;8.504;2022-12-29T06:41:37;10.90;77.40
22562;DHT22;11447;50.562;8.504;2022-12-29T06:44:06;10.80;77.40
22562;DHT22;11447;50.562;8.504;2022-12-29T06:46:33;11.00;77.40
22562;DHT22;11447;50.562;8.504;2022-12-29T06:48:59;10.90;77.40
22562;DHT22;11447;50.562;8.504;2022-12-29T06:51:26;11.00;77.40
22562;DHT22;11447;50.562;8.504;2022-12-29T06:53:53;11.00;77.40
22562;DHT22;11447;50.562;8.504;2022-12-29T06:56:22;10.90;77.40
22562;DHT22;11447;50.562;8.504;2022-12-29T06:58:49;10.90;77.40
22562;DHT22;11447;50.562;8.504;2022-12-29T07:01:15;11.10;77.40
22562;DHT22;11447;50.562;8.504;2022-12-29T07:03:42;11.00;77.40
22562;DHT22;11447;50.562;8.504;2022-12-29T07:06:10;11.00;77.40
22562;DHT22;11447;50.562;8.504;2022-12-29T07:08:36;11.10;77.40
22562;DHT22;11447;50.562;8.504;2022-12-29T07:11:03;10.70;77.40
22562;DHT22;11447;50.562;8.504;2022-12-29T07:13:30;11.00;77.40
22562;DHT22;11447;50.562;8.504;2022-12-29T07:15:56;11.00;77.40
22562;DHT22;11447;50.562;8.504;2022-12-29T07:18:23;11.00;77.40
22562;DHT22;11447;50.562;8.504;2022-12-29T07:20:50;11.00;77.40
22562;DHT22;11447;50.562;8.504;2022-12-29T07:23:16;11.00;77.40
22562;DHT22;11447;50.562;8.504;2022-12-29T07:25:43;11.00;77.40
22562;DHT22;11447;50.562;8.504;2022-12-29T07:28:10;11.00;77.40
22562;DHT22;11447;50.562;8.504;2022-12-29T07:30:37;11.10;77.40
22562;DHT22;11447;50.562;8.504;2022-12-29T07:33:04;11.00;77.40
22562;DHT22;11447;50.562;8.504;2022-12-29T07:35:31;10.90;77.40
22562;DHT22;11447;50.562;8.504;2022-12-29T07:37:59;10.80;77.40
22562;DHT22;11447;50.562;8.504;2022-12-29T07:40:28;11.10;77.40
22562;DHT22;11447;50.562;8.504;2022-12-29T07:42:55;10.90;77.40
22562;DHT22;11447;50.562;8.504;2022-12-29T07:45:21;11.00;77.40
22562;DHT22;11447;50.562;8.504;2022-12-29T07:47:48;11.10;77.40
22562;DHT22;11447;50.562;8.504;2022-12-29T07:50:15;11.00;77.40
22562;DHT22;11447;50.562;8.504;2022-12-29T07:52:42;11.10;77.40
22562;DHT22;11447;50.562;8.504;2022-12-29T07:55:11;11.00;77.40
22562;DHT22;11447;50.562;8.504;2022-12-29T07:57:38;11.20;77.40
22562;DHT22;11447;50.562;8.504;2022-12-29T08:00:07;11.10;77.40
22562;DHT22;11447;50.562;8.504;2022-12-29T08:02:36;11.10;77.40
22562;DHT22;11447;50.562;8.504;2022-12-29T08:05:02;11.20;77.40
22562;DHT22;11447;50.562;8.504;2022-12-29T08:07:29;11.10;77.40
22562;DHT22;11447;50.562;8.504;2022-12-29T08:09:56;11.00;77.40
22562;DHT22;11447;50.562;8.504;2022-12-29T08:12:22;11.10;77.40
22562;DHT22;11447;50.562;8.504;2022-12-29T08:14:49;10.90;77.40
22562;DHT22;11447;50.562;8.504;2022-12-29T08:17:15;11.00;77.40
22562;DHT22;11447;50.562;8.504;2022-12-29T08:19:45;10.90;77.40
22562;DHT22;11447;50.562;8.504;2022-12-29T08:25:06;11.00;77.40
22562;DHT22;11447;50.562;8.504;2022-12-29T08:30:15;11.00;77.40
22562;DHT22;11447;50.562;8.504;2022-12-29T08:32:59;10.80;77.40
22562;DHT22;11447;50.562;8.504;2022-12-29T08:35:27;10.70;77.40
22562;DHT22;11447;50.562;8.504;2022-12-29T08:41:12;10.70;77.40
22562;DHT22;11447;50.562;8.504;2022-12-29T08:43:46;10.70;77.40
22562;DHT22;11447;50.562;8.504;2022-12-29T08:46:16;10.90;77.40
22562;DHT22;11447;50.562;8.504;2022-12-29T08:51:50;10.90;77.40
22562;DHT22;11447;50.562;8.504;2022-12-29T08:54:22;10.90;77.40
22562;DHT22;11447;50.562;8.504;2022-12-29T08:57:01;11.00;77.40
22562;DHT22;11447;50.562;8.504;2022-12-29T08:59:41;10.80;77.40
22562;DHT22;11447;50.562;8.504;2022-12-29T09:02:20;10.90;77.40
22562;DHT22;11447;50.562;8.504;2022-12-29T09:05:10;10.80;77.40
22562;DHT22;11447;50.562;8.504;2022-12-29T09:07:43;10.90;77.40
22562;DHT22;11447;50.562;8.504;2022-12-29T09:10:23;10.70;77.40
22562;DHT22;11447;50.562;8.504;2022-12-29T09:12:50;10.80;77.40
22562;DHT22;11447;50.562;8.504;2022-12-29T09:15:16;10.80;77.40
22562;DHT22;11447;50.562;8.504;2022-12-29T09:17:52;10.80;77.40
22562;DHT22;11447;50.562;8.504;2022-12-29T09:20:21;11.00;77.40
22562;DHT22;11447;50.562;8.504;2022-12-29T09:22:54;11.00;77.40
22562;DHT22;11447;50.562;8.504;2022-12-29T09:25:21;11.00;77.40
22562;DHT22;11447;50.562;8.504;2022-12-29T09:27:54;10.90;77.40
22562;DHT22;11447;50.562;8.504;2022-12-29T09:30:21;10.80;77.40
22562;DHT22;11447;50.562;8.504;2022-12-29T09:32:56;10.90;77.40
22562;DHT22;11447;50.562;8.504;2022-12-29T09:35:25;10.90;77.40
22562;DHT22;11447;50.562;8.504;2022-12-29T09:37:51;10.90;77.40
22562;DHT22;11447;50.562;8.504;2022-12-29T09:40:28;11.00;77.40
22562;DHT22;11447;50.562;8.504;2022-12-29T09:43:10;11.10;77.40
22562;DHT22;11447;50.562;8.504;2022-12-29T09:45:45;11.10;77.40
22562;DHT22;11447;50.562;8.504;2022-12-29T09:48:31;11.20;77.40
22562;DHT22;11447;50.562;8.504;2022-12-29T09:51:00;11.00;77.40
22562;DHT22;11447;50.562;8.504;2022-12-29T09:53:36;11.10;77.40
22562;DHT22;11447;50.562;8.504;2022-12-29T09:56:25;11.20;77.40
22562;DHT22;11447;50.562;8.504;2022-12-29T09:59:04;11.20;77.40
22562;DHT22;11447;50.562;8.504;2022-12-29T10:01:34;11.20;77.40
22562;DHT22;11447;50.562;8.504;2022-12-29T10:04:25;11.20;77.40
22562;DHT22;11447;50.562;8.504;2022-12-29T10:07:02;11.20;77.40
22562;DHT22;11447;50.562;8.504;2022-12-29T10:09:53;11.30;77.40
22562;DHT22;11447;50.562;8.504;2022-12-29T10:15:03;11.20;77.40
22562;DHT22;11447;50.562;8.504;2022-12-29T10:25:17;11.30;77.40
22562;DHT22;11447;50.562;8.504;2022-12-29T10:27:48;11.30;77.40
22562;DHT22;11447;50.562;8.504;2022-12-29T10:30:15;11.40;77.40
22562;DHT22;11447;50.562;8.504;2022-12-29T10:32:45;11.30;77.40
22562;DHT22;11447;50.562;8.504;2022-12-29T10:44:28;11.40;77.40
22562;DHT22;11447;50.562;8.504;2022-12-29T10:47:05;11.40;77.40
22562;DHT22;11447;50.562;8.504;2022-12-29T10:49:52;11.20;77.40
22562;DHT22;11447;50.562;8.504;2022-12-29T10:52:28;11.20;77.40
22562;DHT22;11447;50.562;8.504;2022-12-29T10:57:56;11.20;77.40
22562;DHT22;11447;50.562;8.504;2022-12-29T11:00:28;11.30;77.40
22562;DHT22;11447;50.562;8.504;2022-12-29T11:17:45;11.20;77.40
22562;DHT22;11447;50.562;8.504;2022-12-29T11:20:24;11.30;77.40
22562;DHT22;11447;50.562;8.504;2022-12-29T11:23:00;11.20;77.40
22562;DHT22;11447;50.562;8.504;2022-12-29T11:25:30;11.20;77.40
22562;DHT22;11447;50.562;8.504;2022-12-29T11:28:12;11.10;77.40
22562;DHT22;11447;50.562;8.504;2022-12-29T11:30:40;11.20;77.40
22562;DHT22;11447;50.562;8.504;2022-12-29T11:33:07;11.00;77.40
22562;DHT22;11447;50.562;8.504;2022-12-29T11:38:01;11.10;77.40
22562;DHT22;11447;50.562;8.504;2022-12-29T11:40:29;11.20;77.40
22562;DHT22;11447;50.562;8.504;2022-12-29T11:43:02;11.20;77.40
22562;DHT22;11447;50.562;8.504;2022-12-29T11:45:35;11.10;77.40
22562;DHT22;11447;50.562;8.504;2022-12-29T11:50:36;11.20;77.40
22562;DHT22;11447;50.562;8.504;2022-12-29T11:55:50;11.20;77.40
22562;DHT22;11447;50.562;8.504;2022-12-29T11:58:17;11.20;77.40
22562;DHT22;11447;50.562;8.504;2022-12-29T12:00:43;11.00;77.40
22562;DHT22;11447;50.562;8.504;2022-12-29T12:05:46;11.20;77.40
22562;DHT22;11447;50.562;8.504;2022-12-29T12:08:17;11.20;77.40
22562;DHT22;11447;50.562;8.504;2022-12-29T12:13:25;11.20;77.40
22562;DHT22;11447;50.562;8.504;2022-12-29T12:15:59;11.20;77.40
22562;DHT22;11447;50.562;8.504;2022-12-29T12:18:32;11.10;77.40
22562;DHT22;11447;50.562;8.504;2022-12-29T12:21:04;11.20;77.40
22562;DHT22;11447;50.562;8.504;2022-12-29T12:23:41;11.20;77.40
22562;DHT22;11447;50.562;8.504;2022-12-29T12:26:11;11.20;77.40
22562;DHT22;11447;50.562;8.504;2022-12-29T12:31:17;11.20;77.40
22562;DHT22;11447;50.562;8.504;2022-12-29T12:33:48;11.20;77.30
22562;DHT22;11447;50.562;8.504;2022-12-29T12:41:13;11.30;76.30
22562;DHT22;11447;50.562;8.504;2022-12-29T13:04:34;11.40;71.90
22562;DHT22;11447;50.562;8.504;2022-12-29T13:09:37;11.40;71.70
22562;DHT22;11447;50.562;8.504;2022-12-29T13:26:59;11.40;70.60
22562;DHT22;11447;50.562;8.504;2022-12-29T13:29:35;11.40;70.90
22562;DHT22;11447;50.562;8.504;2022-12-29T13:40:34;11.40;70.00
22562;DHT22;11447;50.562;8.504;2022-12-29T13:43:11;11.40;69.80
22562;DHT22;11447;50.562;8.504;2022-12-29T13:45:41;11.40;70.90
22562;DHT22;11447;50.562;8.504;2022-12-29T13:50:42;11.40;69.10
22562;DHT22;11447;50.562;8.504;2022-12-29T13:58:12;11.40;69.80
22562;DHT22;11447;50.562;8.504;2022-12-29T14:00:44;11.50;68.20
22562;DHT22;11447;50.562;8.504;2022-12-29T14:03:17;11.40;68.70
22562;DHT22;11447;50.562;8.504;2022-12-29T14:08:31;11.40;69.70
22562;DHT22;11447;50.562;8.504;2022-12-29T14:11:02;11.40;68.10
22562;DHT22;11447;50.562;8.504;2022-12-29T14:13:32;11.40;69.40
22562;DHT22;11447;50.562;8.504;2022-12-29T14:16:03;11.40;68.00
22562;DHT22;11447;50.562;8.504;2022-12-29T14:18:33;11.50;68.40
22562;DHT22;11447;50.562;8.504;2022-12-29T14:23:40;11.40;69.00
22562;DHT22;11447;50.562;8.504;2022-12-29T14:36:33;11.30;68.00
22562;DHT22;11447;50.562;8.504;2022-12-29T14:39:00;11.30;68.80
22562;DHT22;11447;50.562;8.504;2022-12-29T14:41:29;11.30;66.60
22562;DHT22;11447;50.562;8.504;2022-12-29T14:43:58;11.20;68.00
22562;DHT22;11447;50.562;8.504;2022-12-29T14:49:19;11.10;68.50
22562;DHT22;11447;50.562;8.504;2022-12-29T14:51:47;11.00;66.00
22562;DHT22;11447;50.562;8.504;2022-12-29T14:54:34;11.10;65.60
22562;DHT22;11447;50.562;8.504;2022-12-29T14:57:02;11.10;65.50
22562;DHT22;11447;50.562;8.504;2022-12-29T14:59:29;11.00;66.20
22562;DHT22;11447;50.562;8.504;2022-12-29T15:01:59;11.10;65.90
22562;DHT22;11447;50.562;8.504;2022-12-29T15:04:30;11.10;65.90
22562;DHT22;11447;50.562;8.504;2022-12-29T15:06:57;11.10;67.40
22562;DHT22;11447;50.562;8.504;2022-12-29T15:09:36;11.10;66.00
22562;DHT22;11447;50.562;8.504;2022-12-29T15:19:49;11.10;67.50
22562;DHT22;11447;50.562;8.504;2022-12-29T15:22:18;11.00;68.10
22562;DHT22;11447;50.562;8.504;2022-12-29T15:24:45;11.00;67.30
22562;DHT22;11447;50.562;8.504;2022-12-29T15:27:15;10.90;67.30
22562;DHT22;11447;50.562;8.504;2022-12-29T15:29:45;11.10;68.00
22562;DHT22;11447;50.562;8.504;2022-12-29T15:32:17;11.00;67.50
22562;DHT22;11447;50.562;8.504;2022-12-29T15:34:45;11.00;68.20
22562;DHT22;11447;50.562;8.504;2022-12-29T15:37:16;11.00;68.80
22562;DHT22;11447;50.562;8.504;2022-12-29T15:39:44;10.80;67.50
22562;DHT22;11447;50.562;8.504;2022-12-29T15:42:31;11.00;67.80
22562;DHT22;11447;50.562;8.504;2022-12-29T15:45:03;10.90;68.00
22562;DHT22;11447;50.562;8.504;2022-12-29T15:47:36;10.80;68.80
22562;DHT22;11447;50.562;8.504;2022-12-29T15:50:06;11.00;67.90
22562;DHT22;11447;50.562;8.504;2022-12-29T15:52:35;10.90;69.20
22562;DHT22;11447;50.562;8.504;2022-12-29T15:55:05;10.80;68.70
22562;DHT22;11447;50.562;8.504;2022-12-29T15:57:36;10.80;68.10
22562;DHT22;11447;50.562;8.504;2022-12-29T16:00:17;10.90;69.20
22562;DHT22;11447;50.562;8.504;2022-12-29T16:02:47;10.80;68.60
22562;DHT22;11447;50.562;8.504;2022-12-29T16:05:17;10.80;68.80
22562;DHT22;11447;50.562;8.504;2022-12-29T16:07:51;10.80;67.20
22562;DHT22;11447;50.562;8.504;2022-12-29T16:10:37;10.70;68.70
22562;DHT22;11447;50.562;8.504;2022-12-29T16:13:27;10.60;67.60
22562;DHT22;11447;50.562;8.504;2022-12-29T16:15:54;10.60;67.60
22562;DHT22;11447;50.562;8.504;2022-12-29T16:18:26;10.70;68.30
22562;DHT22;11447;50.562;8.504;2022-12-29T16:20:54;10.60;69.60
22562;DHT22;11447;50.562;8.504;2022-12-29T16:23:23;10.50;68.90
22562;DHT22;11447;50.562;8.504;2022-12-29T16:25:50;10.60;68.70
22562;DHT22;11447;50.562;8.504;2022-12-29T16:28:21;10.60;67.90
22562;DHT22;11447;50.562;8.504;2022-12-29T16:30:59;10.50;68.30
22562;DHT22;11447;50.562;8.504;2022-12-29T16:36:20;10.40;69.40
22562;DHT22;11447;50.562;8.504;2022-12-29T16:38:47;10.30;68.80
22562;DHT22;11447;50.562;8.504;2022-12-29T16:41:27;10.40;70.30
22562;DHT22;11447;50.562;8.504;2022-12-29T16:46:43;10.30;70.20
22562;DHT22;11447;50.562;8.504;2022-12-29T16:49:14;10.30;70.50
22562;DHT22;11447;50.562;8.504;2022-12-29T16:51:48;10.30;70.30
22562;DHT22;11447;50.562;8.504;2022-12-29T16:54:20;10.30;71.30
22562;DHT22;11447;50.562;8.504;2022-12-29T16:56:48;10.30;69.40
22562;DHT22;11447;50.562;8.504;2022-12-29T16:59:23;10.10;69.80
22562;DHT22;11447;50.562;8.504;2022-12-29T17:01:51;10.10;69.40
22562;DHT22;11447;50.562;8.504;2022-12-29T17:04:18;10.10;69.20
22562;DHT22;11447;50.562;8.504;2022-12-29T17:06:45;10.10;70.10
22562;DHT22;11447;50.562;8.504;2022-12-29T17:09:21;10.00;70.80
22562;DHT22;11447;50.562;8.504;2022-12-29T17:11:49;10.10;69.70
22562;DHT22;11447;50.562;8.504;2022-12-29T17:17:09;10.00;69.20
22562;DHT22;11447;50.562;8.504;2022-12-29T17:19:39;10.00;71.00
22562;DHT22;11447;50.562;8.504;2022-12-29T17:22:13;10.00;69.00
22562;DHT22;11447;50.562;8.504;2022-12-29T17:24:41;9.90;68.30
22562;DHT22;11447;50.562;8.504;2022-12-29T17:27:09;9.90;68.70
22562;DHT22;11447;50.562;8.504;2022-12-29T17:29:39;9.90;69.70
22562;DHT22;11447;50.562;8.504;2022-12-29T17:32:10;9.90;70.20
22562;DHT22;11447;50.562;8.504;2022-12-29T17:34:38;9.90;68.60
22562;DHT22;11447;50.562;8.504;2022-12-29T17:37:39;9.90;69.30
22562;DHT22;11447;50.562;8.504;2022-12-29T17:39:58;9.80;69.80
22562;DHT22;11447;50.562;8.504;2022-12-29T17:42:27;9.80;69.10
22562;DHT22;11447;50.562;8.504;2022-12-29T17:44:59;9.80;70.30
22562;DHT22;11447;50.562;8.504;2022-12-29T17:47:26;9.90;69.40
22562;DHT22;11447;50.562;8.504;2022-12-29T17:49:53;9.80;68.70
22562;DHT22;11447;50.562;8.504;2022-12-29T17:52:23;9.70;67.90
22562;DHT22;11447;50.562;8.504;2022-12-29T17:54:50;9.80;70.50
22562;DHT22;11447;50.562;8.504;2022-12-29T17:57:18;9.80;69.70
22562;DHT22;11447;50.562;8.504;2022-12-29T17:59:45;9.80;68.60
22562;DHT22;11447;50.562;8.504;2022-12-29T18:02:30;9.70;68.60
22562;DHT22;11447;50.562;8.504;2022-12-29T18:04:57;9.60;68.50
22562;DHT22;11447;50.562;8.504;2022-12-29T18:07:26;9.80;69.30
22562;DHT22;11447;50.562;8.504;2022-12-29T18:10:00;9.70;68.30
22562;DHT22;11447;50.562;8.504;2022-12-29T18:12:28;9.70;68.60
22562;DHT22;11447;50.562;8.504;2022-12-29T18:14:58;9.70;70.00
22562;DHT22;11447;50.562;8.504;2022-12-29T18:17:24;9.70;70.90
22562;DHT22;11447;50.562;8.504;2022-12-29T18:19:51;9.70;70.00
22562;DHT22;11447;50.562;8.504;2022-12-29T18:22:21;9.70;70.30
22562;DHT22;11447;50.562;8.504;2022-12-29T18:24:48;9.70;72.00
22562;DHT22;11447;50.562;8.504;2022-12-29T18:27:15;9.70;71.40
22562;DHT22;11447;50.562;8.504;2022-12-29T18:29:42;9.70;71.50
22562;DHT22;11447;50.562;8.504;2022-12-29T18:32:09;9.60;71.30
22562;DHT22;11447;50.562;8.504;2022-12-29T18:34:40;9.60;71.50
22562;DHT22;11447;50.562;8.504;2022-12-29T18:37:09;9.50;71.10
22562;DHT22;11447;50.562;8.504;2022-12-29T18:39:36;9.50;72.10
22562;DHT22;11447;50.562;8.504;2022-12-29T18:42:04;9.50;71.30
22562;DHT22;11447;50.562;8.504;2022-12-29T18:44:30;9.50;71.50
22562;DHT22;11447;50.562;8.504;2022-12-29T18:46:57;9.50;71.20
22562;DHT22;11447;50.562;8.504;2022-12-29T18:49:24;9.40;71.70
22562;DHT22;11447;50.562;8.504;2022-12-29T18:51:51;9.40;72.00
22562;DHT22;11447;50.562;8.504;2022-12-29T18:54:27;9.50;71.80
22562;DHT22;11447;50.562;8.504;2022-12-29T18:56:54;9.50;71.50
22562;DHT22;11447;50.562;8.504;2022-12-29T18:59:23;9.40;70.80
22562;DHT22;11447;50.562;8.504;2022-12-29T19:01:50;9.30;72.00